Time;durP1;ratioP1;P1;durP2;ratioP2;P2;SDS_P1;SDS_P2;PMS_P1;PMS_P2;Temp;Humidity;BMP_temperature;BMP_pressure;BME280_temperature;BME280_humidity;BME280_pressure;Samples;Min_cycle;Max_cycle;Signal;HPM_P1;HPM_P2
2021/05/30 00:02:14;;;;;;;6.40;3.33;;;;;;;12.02;73.22;93477.44;5092651;28;20020;-60
2021/05/30 00:04:39;;;;;;;2.83;2.53;;;;;;;11.89;73.92;93468.66;5091964;28;20031;-61
2021/05/30 00:07:07;;;;;;;3.50;2.83;;;;;;;11.78;73.62;93469.03;5092187;28;20081;-60
2021/05/30 00:09:33;;;;;;;3.63;2.85;;;;;;;11.83;73.81;93468.09;5092233;28;20032;-60
2021/05/30 00:11:58;;;;;;;2.28;2.08;;;;;;;11.94;73.30;93467.69;5092889;28;20038;-59
2021/05/30 00:14:23;;;;;;;3.13;2.10;;;;;;;11.96;72.83;93468.63;5092509;28;20028;-59
2021/05/30 00:16:49;;;;;;;4.55;3.67;;;;;;;11.72;73.04;93457.41;5092529;28;20028;-59
2021/05/30 00:19:15;;;;;;;3.47;2.60;;;;;;;11.72;73.63;93452.63;5094612;28;20028;-60
2021/05/30 00:21:42;;;;;;;2.90;2.70;;;;;;;11.51;74.27;93457.59;5112878;28;20068;-60
2021/05/30 00:24:07;;;;;;;2.75;2.25;;;;;;;11.53;74.06;93466.09;5112658;28;20031;-59
2021/05/30 00:26:33;;;;;;;1.40;1.30;;;;;;;11.54;73.78;93445.47;5112943;28;20023;-60
2021/05/30 00:28:59;;;;;;;4.68;2.60;;;;;;;11.72;73.59;93451.88;5112770;28;20027;-60
2021/05/30 00:31:24;;;;;;;2.40;2.20;;;;;;;11.49;73.83;93440.09;5112441;28;20019;-60
2021/05/30 00:33:50;;;;;;;3.05;2.70;;;;;;;11.50;73.74;93461.66;5112554;28;20036;-60
2021/05/30 00:36:16;;;;;;;2.15;1.95;;;;;;;11.37;74.35;93461.84;5112808;28;20038;-61
2021/05/30 00:38:41;;;;;;;2.00;1.63;;;;;;;11.44;73.82;93461.13;5112419;28;20031;-60
2021/05/30 00:41:07;;;;;;;2.20;2.05;;;;;;;11.38;74.02;93460.56;5101779;28;20020;-60
2021/05/30 00:43:48;;;;;;;2.10;1.67;;;;;;;11.23;74.30;93455.78;5091696;28;20028;-61
2021/05/30 00:46:13;;;;;;;2.38;2.15;;;;;;;11.15;74.56;93457.06;5090406;28;20032;-61
2021/05/30 00:48:39;;;;;;;1.95;1.77;;;;;;;11.22;74.53;93462.59;5092297;28;20466;-61
2021/05/30 00:51:05;;;;;;;4.63;2.40;;;;;;;11.46;74.09;93461.28;5091692;28;20066;-60
2021/05/30 00:53:31;;;;;;;3.85;3.17;;;;;;;11.46;73.86;93458.53;5102647;28;20043;-60
2021/05/30 00:55:58;;;;;;;4.72;2.97;;;;;;;11.52;74.47;93467.38;5112121;28;20028;-60
2021/05/30 00:58:24;;;;;;;8.45;3.72;;;;;;;11.42;75.44;93463.69;5112255;28;20049;-60
2021/05/30 01:00:50;;;;;;;5.47;3.33;;;;;;;11.35;75.99;93461.66;5111711;28;20519;-60
2021/05/30 01:03:16;;;;;;;4.18;3.45;;;;;;;11.35;75.86;93464.44;5111547;28;20039;-56
2021/05/30 01:05:41;;;;;;;4.70;3.65;;;;;;;11.46;74.77;93457.81;5111888;28;20030;-57
2021/05/30 01:08:07;;;;;;;4.63;3.38;;;;;;;11.56;74.22;93465.00;5111473;28;20024;-59
2021/05/30 01:10:34;;;;;;;6.00;3.67;;;;;;;11.63;74.31;93463.50;5111882;28;20031;-60
2021/05/30 01:13:02;;;;;;;7.50;4.45;;;;;;;11.48;74.72;93469.06;5111729;28;20484;-60
2021/05/30 01:15:28;;;;;;;4.57;3.45;;;;;;;11.50;74.75;93472.00;5112103;28;20027;-60
2021/05/30 01:17:55;;;;;;;7.05;3.65;;;;;;;11.38;74.61;93468.88;5110764;28;20026;-60
2021/05/30 01:20:21;;;;;;;4.85;3.60;;;;;;;11.46;74.70;93468.88;5099466;28;20100;-60
2021/05/30 01:22:48;;;;;;;3.53;3.22;;;;;;;11.44;74.50;93469.41;5090648;28;20032;-60
2021/05/30 01:25:15;;;;;;;3.53;2.92;;;;;;;11.36;74.55;93477.72;5091210;28;20035;-60
2021/05/30 01:27:41;;;;;;;2.42;2.22;;;;;;;11.42;74.45;93474.75;5091591;28;20020;-60
2021/05/30 01:30:09;;;;;;;4.20;2.92;;;;;;;11.38;73.93;93447.50;5108368;28;20497;-60
2021/05/30 01:32:34;;;;;;;3.20;2.92;;;;;;;11.47;74.29;93471.06;5111414;28;20488;-60
2021/05/30 01:35:00;;;;;;;3.38;2.75;;;;;;;11.46;74.16;93471.63;5104449;28;20116;-60
2021/05/30 01:37:26;;;;;;;2.92;2.50;;;;;;;11.28;74.94;93467.94;5101073;28;20035;-60
2021/05/30 01:39:51;;;;;;;4.32;3.25;;;;;;;11.26;75.21;93465.72;5100281;28;20148;-61
2021/05/30 01:42:17;;;;;;;2.42;2.25;;;;;;;11.09;75.60;93468.28;5102039;28;20019;-61
2021/05/30 01:44:43;;;;;;;2.55;2.35;;;;;;;11.24;75.00;93473.13;5100072;28;20498;-61
2021/05/30 01:47:08;;;;;;;2.60;2.03;;;;;;;11.16;74.56;93470.34;5100127;28;20027;-61
2021/05/30 01:49:35;;;;;;;2.15;1.85;;;;;;;11.06;75.13;93476.97;5102627;28;20020;-61
2021/05/30 01:52:02;;;;;;;2.22;2.03;;;;;;;11.09;74.47;93454.47;5098577;28;20020;-61
2021/05/30 01:54:28;;;;;;;4.85;2.25;;;;;;;11.08;75.09;93480.66;5098423;28;20040;-60
2021/05/30 01:56:57;;;;;;;2.20;2.00;;;;;;;11.17;74.97;93477.34;5100535;28;20535;-60
2021/05/30 01:59:25;;;;;;;2.17;1.98;;;;;;;11.33;74.44;93480.84;5099533;28;20030;-54
2021/05/30 02:01:53;;;;;;;3.17;2.78;;;;;;;11.33;73.95;93478.06;5099605;28;20036;-56
2021/05/30 02:04:21;;;;;;;1.55;1.45;;;;;;;11.28;74.52;93488.00;5105375;28;20115;-61
2021/05/30 02:06:48;;;;;;;2.63;2.13;;;;;;;11.26;74.63;93481.59;5089342;28;20500;-61
2021/05/30 02:09:15;;;;;;;1.70;1.60;;;;;;;11.27;74.26;93480.28;5109536;28;20036;-61
2021/05/30 02:11:40;;;;;;;1.90;1.73;;;;;;;11.33;73.97;93480.84;5093367;28;20072;-61
2021/05/30 02:14:06;;;;;;;3.45;2.80;;;;;;;11.14;74.75;93483.97;5090216;28;20039;-61
2021/05/30 02:16:32;;;;;;;3.55;2.88;;;;;;;11.03;75.40;93489.84;5090524;28;20024;-61
2021/05/30 02:18:58;;;;;;;2.50;2.25;;;;;;;10.96;75.84;93485.03;5088835;28;20393;-61
2021/05/30 02:21:25;;;;;;;11.48;2.72;;;;;;;10.98;76.27;93487.28;5110203;28;20050;-61
2021/05/30 02:23:50;;;;;;;4.97;3.67;;;;;;;11.09;75.33;93475.84;5110369;28;20069;-61
2021/05/30 02:26:15;;;;;;;4.78;2.80;;;;;;;11.00;75.41;93471.59;5110333;28;20108;-60
2021/05/30 02:28:41;;;;;;;2.67;2.33;;;;;;;10.99;75.20;93474.91;5110582;28;20020;-53
2021/05/30 02:31:06;;;;;;;4.50;3.63;;;;;;;11.01;75.78;93480.63;5108904;28;20514;-53
2021/05/30 02:33:32;;;;;;;3.75;3.22;;;;;;;10.84;76.06;93480.41;5110274;28;20031;-54
2021/05/30 02:35:57;;;;;;;4.13;2.97;;;;;;;10.76;76.37;93482.44;5110340;28;20027;-52
2021/05/30 02:38:23;;;;;;;7.20;3.20;;;;;;;10.70;76.55;93477.06;5108906;28;20458;-57
2021/05/30 02:40:48;;;;;;;6.15;2.90;;;;;;;10.94;75.67;93481.34;5110293;28;20028;-58
2021/05/30 02:43:14;;;;;;;3.78;3.00;;;;;;;10.96;75.46;93484.31;5110215;28;20032;-58
2021/05/30 02:45:39;;;;;;;3.50;2.83;;;;;;;10.97;76.00;93477.50;5109908;28;20019;-60
2021/05/30 02:48:05;;;;;;;2.65;2.45;;;;;;;10.87;76.02;93476.56;5108970;28;20036;-61
2021/05/30 02:50:30;;;;;;;2.97;2.67;;;;;;;10.88;75.90;93475.28;5110461;28;20031;-58
2021/05/30 02:52:56;;;;;;;4.50;3.38;;;;;;;10.95;75.44;93474.56;5110230;28;20102;-59
2021/05/30 02:55:21;;;;;;;2.97;2.67;;;;;;;10.82;75.96;93464.41;5109839;28;20035;-60
2021/05/30 02:57:47;;;;;;;4.55;3.00;;;;;;;10.81;76.14;93467.69;5110266;28;20037;-60
2021/05/30 03:00:13;;;;;;;3.38;2.60;;;;;;;10.90;75.87;93459.63;5110129;28;20096;-59
2021/05/30 03:02:39;;;;;;;3.45;2.50;;;;;;;10.86;75.55;93481.34;5110031;28;20023;-60
2021/05/30 03:05:05;;;;;;;2.83;2.30;;;;;;;10.92;75.26;93470.13;5110183;28;20156;-60
2021/05/30 03:07:31;;;;;;;2.10;1.90;;;;;;;10.99;74.88;93480.44;5109103;28;20031;-55
2021/05/30 03:09:56;;;;;;;4.40;2.30;;;;;;;10.93;75.11;93477.13;5109734;28;20027;-56
2021/05/30 03:12:22;;;;;;;4.38;2.28;;;;;;;10.74;76.03;93473.97;5109713;28;20027;-59
2021/05/30 03:14:47;;;;;;;2.70;2.20;;;;;;;10.65;75.95;93489.75;5110028;28;20114;-59
2021/05/30 03:17:13;;;;;;;2.85;2.38;;;;;;;10.59;76.62;93485.69;5109799;28;20032;-59
2021/05/30 03:19:38;;;;;;;2.95;2.33;;;;;;;10.44;76.80;93477.38;5104594;28;20503;-59
2021/05/30 03:22:04;;;;;;;2.42;2.13;;;;;;;10.46;77.37;93472.78;5089429;28;20032;-59
2021/05/30 03:24:30;;;;;;;12.05;2.83;;;;;;;10.40;77.92;93469.44;5089775;28;20509;-59
2021/05/30 03:26:55;;;;;;;3.75;2.45;;;;;;;10.65;77.00;93467.66;5089403;28;20086;-59
2021/05/30 03:29:21;;;;;;;2.85;2.50;;;;;;;10.83;76.53;93484.50;5099685;28;20034;-59
2021/05/30 03:31:46;;;;;;;3.38;2.53;;;;;;;10.85;76.45;93479.16;5109844;28;20016;-59
2021/05/30 03:34:12;;;;;;;2.75;2.45;;;;;;;10.88;76.42;93478.78;5109200;28;20412;-59
2021/05/30 03:36:37;;;;;;;2.92;2.55;;;;;;;10.73;77.00;93483.53;5109735;28;20028;-59
2021/05/30 03:39:06;;;;;;;4.20;2.67;;;;;;;10.68;77.47;93480.38;5109579;28;20031;-59
2021/05/30 03:41:41;;;;;;;3.83;2.53;;;;;;;10.81;77.31;93478.75;5108014;28;20419;-59
2021/05/30 03:44:08;;;;;;;3.08;2.30;;;;;;;10.89;76.91;93480.25;5109688;28;20110;-60
2021/05/30 03:46:34;;;;;;;4.82;2.22;;;;;;;11.04;76.74;93485.06;5109725;28;20027;-60
2021/05/30 03:48:59;;;;;;;2.13;1.95;;;;;;;11.18;75.86;93480.81;5109276;28;20038;-59
2021/05/30 03:51:25;;;;;;;2.70;2.50;;;;;;;11.35;75.32;93475.47;5109268;28;20110;-60
2021/05/30 03:53:50;;;;;;;2.75;2.42;;;;;;;11.37;75.00;93472.91;5108232;28;20027;-60
2021/05/30 03:56:16;;;;;;;3.88;2.83;;;;;;;11.52;74.77;93475.66;5109297;28;20027;-59
2021/05/30 03:58:41;;;;;;;5.38;3.63;;;;;;;11.55;74.78;93480.09;5109275;28;20043;-60
2021/05/30 04:01:07;;;;;;;6.32;3.67;;;;;;;11.66;74.78;93474.19;5109152;28;20024;-60
2021/05/30 04:03:32;;;;;;;6.72;4.72;;;;;;;11.76;74.40;93474.41;5109110;28;20032;-60
2021/05/30 04:05:58;;;;;;;3.60;2.75;;;;;;;11.84;73.91;93475.84;5102629;28;20106;-59
2021/05/30 04:08:23;;;;;;;4.85;3.58;;;;;;;11.89;73.86;93472.13;5101214;28;20440;-59
2021/05/30 04:10:50;;;;;;;3.75;3.03;;;;;;;12.03;73.74;93470.63;5109121;28;20098;-59
2021/05/30 04:13:16;;;;;;;3.13;2.70;;;;;;;11.93;73.94;93471.78;5109284;28;20713;-60
2021/05/30 04:15:41;;;;;;;5.72;3.25;;;;;;;11.86;74.01;93469.75;5109466;28;20132;-60
2021/05/30 04:18:07;;;;;;;12.93;7.10;;;;;;;11.81;75.05;93474.19;5109160;28;20020;-58
2021/05/30 04:20:32;;;;;;;8.90;6.00;;;;;;;11.89;74.76;93468.66;5099497;28;20031;-58
2021/05/30 04:22:57;;;;;;;5.78;3.70;;;;;;;11.81;75.39;93471.41;5092131;28;20036;-57
2021/05/30 04:25:23;;;;;;;5.30;4.07;;;;;;;11.64;75.02;93451.88;5091997;28;20035;-63
2021/05/30 04:27:48;;;;;;;3.78;3.08;;;;;;;11.75;75.84;93470.88;5092592;28;20023;-63
2021/05/30 04:30:15;;;;;;;5.20;3.55;;;;;;;11.84;75.94;93469.56;5110626;28;20476;-64
2021/05/30 04:32:41;;;;;;;6.80;2.40;;;;;;;12.00;75.53;93471.00;5112799;28;20033;-61
2021/05/30 04:35:08;;;;;;;2.97;2.25;;;;;;;12.11;75.23;93470.59;5112855;28;20157;-60
2021/05/30 04:37:33;;;;;;;3.85;2.80;;;;;;;12.32;74.43;93468.34;5112521;28;20784;-55
2021/05/30 04:39:59;;;;;;;2.47;2.28;;;;;;;12.37;74.19;93474.94;5112430;28;20022;-56
2021/05/30 04:42:24;;;;;;;7.22;2.55;;;;;;;12.44;74.05;93476.94;5112808;28;20026;-59
2021/05/30 04:44:50;;;;;;;5.50;2.80;;;;;;;12.64;73.55;93470.41;5112466;28;20019;-59
2021/05/30 04:47:15;;;;;;;3.05;2.35;;;;;;;12.85;73.13;93479.88;5112291;28;20066;-58
2021/05/30 04:49:41;;;;;;;20.08;4.07;;;;;;;12.98;71.97;93473.34;5103006;28;20032;-58
2021/05/30 04:52:08;;;;;;;2.88;2.45;;;;;;;13.04;71.72;93471.06;5109919;28;20023;-60
2021/05/30 04:54:33;;;;;;;3.95;3.55;;;;;;;13.10;71.80;93471.63;5112605;28;20031;-60
2021/05/30 04:56:59;;;;;;;3.75;3.03;;;;;;;13.11;71.33;93477.91;5112340;27;20549;-59
2021/05/30 04:59:24;;;;;;;4.68;2.97;;;;;;;13.17;71.22;93478.41;5112001;28;20493;-60
2021/05/30 05:01:50;;;;;;;3.42;2.92;;;;;;;13.30;71.33;93467.03;5112012;28;20073;-61
2021/05/30 05:04:16;;;;;;;3.03;2.38;;;;;;;13.44;70.62;93471.75;5099536;28;20028;-60
2021/05/30 05:06:41;;;;;;;3.22;2.92;;;;;;;13.59;70.09;93470.88;5109974;28;20016;-60
2021/05/30 05:09:07;;;;;;;3.30;2.70;;;;;;;13.72;69.03;93472.63;5109274;27;20031;-60
2021/05/30 05:11:33;;;;;;;15.48;6.32;;;;;;;13.87;68.75;93462.13;5110209;28;20023;-60
2021/05/30 05:13:58;;;;;;;8.60;4.93;;;;;;;13.56;67.79;93439.47;5109093;28;20407;-61
2021/05/30 05:16:24;;;;;;;9.20;5.13;;;;;;;13.91;68.09;93468.00;5110250;28;20411;-61
2021/05/30 05:18:49;;;;;;;2.80;2.58;;;;;;;14.09;67.73;93471.50;5110859;28;20012;-60
2021/05/30 05:21:15;;;;;;;2.38;2.17;;;;;;;14.06;68.07;93472.66;5110779;28;20067;-60
2021/05/30 05:23:40;;;;;;;2.25;2.05;;;;;;;14.06;67.98;93469.88;5106122;28;20412;-60
2021/05/30 05:26:06;;;;;;;3.60;2.40;;;;;;;14.16;67.60;93473.47;5102393;28;20034;-58
2021/05/30 05:28:32;;;;;;;6.88;2.60;;;;;;;14.22;67.07;93462.84;5101742;28;20024;-59
2021/05/30 05:30:59;;;;;;;2.28;1.80;;;;;;;14.40;67.82;93478.25;5102177;28;20023;-61
2021/05/30 05:33:25;;;;;;;3.30;1.95;;;;;;;14.57;67.50;93469.88;5101898;28;20424;-61
2021/05/30 05:35:51;;;;;;;3.47;2.35;;;;;;;14.45;65.83;93471.69;5100248;28;20501;-61
2021/05/30 05:38:17;;;;;;;3.40;2.80;;;;;;;14.43;66.34;93460.41;5096099;28;20028;-59
2021/05/30 05:40:42;;;;;;;6.88;2.47;;;;;;;14.59;66.30;93466.53;5091321;28;20016;-57
2021/05/30 05:43:08;;;;;;;1.85;1.67;;;;;;;14.44;65.52;93450.78;5091038;28;20023;-58
2021/05/30 05:45:34;;;;;;;3.70;2.10;;;;;;;14.62;64.91;93463.31;5090960;28;20050;-58
2021/05/30 05:48:00;;;;;;;3.15;2.13;;;;;;;14.86;64.77;93468.00;5089557;28;20024;-58
2021/05/30 05:50:26;;;;;;;4.80;2.40;;;;;;;15.03;63.60;93481.13;5090727;28;20027;-60
2021/05/30 05:52:53;;;;;;;3.30;1.80;;;;;;;15.08;62.91;93478.09;5090829;28;20020;-61
2021/05/30 05:55:20;;;;;;;6.80;1.98;;;;;;;15.16;62.94;93475.94;5090671;28;20107;-60
2021/05/30 05:57:50;;;;;;;8.13;2.55;;;;;;;15.28;63.04;93473.34;5090595;28;20481;-58
2021/05/30 06:00:21;;;;;;;2.67;2.28;;;;;;;15.27;61.99;93468.38;5090512;28;20048;-58
2021/05/30 06:02:49;;;;;;;2.80;1.50;;;;;;;15.33;61.42;93482.75;5090426;28;20099;-59
2021/05/30 06:05:19;;;;;;;7.43;2.03;;;;;;;15.29;60.50;93474.09;5102880;28;20035;-59
2021/05/30 06:07:49;;;;;;;1.45;1.35;;;;;;;15.15;60.65;93479.28;5105565;28;20381;-59
2021/05/30 06:10:15;;;;;;;4.80;1.77;;;;;;;15.16;62.24;93470.38;5110990;28;20026;-59
2021/05/30 06:12:41;;;;;;;1.83;1.67;;;;;;;15.20;61.61;93473.47;5110546;28;20020;-59
2021/05/30 06:15:08;;;;;;;1.58;1.48;;;;;;;15.25;61.71;93479.31;5110895;28;20077;-59
2021/05/30 06:17:34;;;;;;;2.13;1.80;;;;;;;15.08;60.91;93478.09;5111730;28;20113;-59
2021/05/30 06:19:59;;;;;;;1.85;1.75;;;;;;;14.91;61.19;93474.63;5105041;28;20158;-59
2021/05/30 06:22:26;;;;;;;2.08;1.80;;;;;;;14.85;61.73;93474.91;5091988;28;20585;-61
2021/05/30 06:24:52;;;;;;;3.60;1.52;;;;;;;15.00;61.62;93485.81;5090022;28;20099;-59
2021/05/30 06:27:17;;;;;;;1.48;1.38;;;;;;;15.22;61.23;93491.63;5090095;28;20110;-59
2021/05/30 06:29:43;;;;;;;3.72;1.75;;;;;;;15.37;60.25;93488.63;5103607;28;20027;-58
2021/05/30 06:32:08;;;;;;;1.45;1.35;;;;;;;15.50;59.50;93477.13;5110250;28;20027;-58
2021/05/30 06:34:34;;;;;;;1.50;1.40;;;;;;;15.71;59.44;93480.13;5100542;28;20035;-58
2021/05/30 06:36:59;;;;;;;2.15;1.20;;;;;;;15.81;58.67;93478.09;5089862;28;20016;-59
2021/05/30 06:39:25;;;;;;;1.83;1.58;;;;;;;15.93;60.11;93482.53;5089647;28;20093;-59
2021/05/30 06:41:51;;;;;;;1.60;1.38;;;;;;;16.09;58.20;93487.84;5089397;28;20020;-59
2021/05/30 06:44:17;;;;;;;4.65;1.65;;;;;;;16.32;57.56;93494.47;5089703;28;20419;-58
2021/05/30 06:46:42;;;;;;;2.38;2.17;;;;;;;16.47;58.38;93483.03;5088813;28;20024;-58
2021/05/30 06:49:08;;;;;;;2.55;1.40;;;;;;;16.57;56.57;93486.56;5106132;28;20617;-58
2021/05/30 06:51:33;;;;;;;1.83;1.50;;;;;;;16.52;56.01;93479.22;5098538;28;20515;-59
2021/05/30 06:54:00;;;;;;;3.05;1.40;;;;;;;16.71;54.21;93492.44;5089495;28;20020;-59
2021/05/30 06:56:27;;;;;;;1.58;1.38;;;;;;;16.88;55.70;93494.31;5088292;28;20525;-59
2021/05/30 06:58:53;;;;;;;2.05;1.38;;;;;;;17.09;54.73;93497.22;5089747;28;20055;-59
2021/05/30 07:01:19;;;;;;;3.28;2.05;;;;;;;17.24;53.92;93489.25;5089324;28;20027;-59
2021/05/30 07:03:46;;;;;;;3.70;1.75;;;;;;;17.36;54.58;93486.59;5089840;28;20024;-59
2021/05/30 07:06:12;;;;;;;1.48;1.38;;;;;;;17.50;54.62;93487.56;5102313;28;20024;-58
2021/05/30 07:08:37;;;;;;;1.33;1.23;;;;;;;17.53;53.54;93489.19;5109112;28;20058;-58
2021/05/30 07:11:03;;;;;;;1.35;1.20;;;;;;;17.58;52.89;93485.38;5109065;28;20032;-59
2021/05/30 07:13:29;;;;;;;1.15;1.05;;;;;;;17.68;53.24;93471.34;5109543;28;20023;-59
2021/05/30 07:15:54;;;;;;;1.10;1.00;;;;;;;17.77;50.42;93476.16;5109478;28;20023;-58
2021/05/30 07:18:21;;;;;;;5.05;1.27;;;;;;;17.62;50.43;93482.84;5109755;28;20023;-58
2021/05/30 07:20:48;;;;;;;2.22;1.63;;;;;;;17.83;50.63;93482.16;5094763;28;20032;-58
2021/05/30 07:23:14;;;;;;;1.40;1.30;;;;;;;18.00;51.01;93484.69;5087712;28;20050;-58
2021/05/30 07:25:41;;;;;;;2.17;1.52;;;;;;;18.11;50.74;93486.84;5088088;28;20031;-58
2021/05/30 07:28:06;;;;;;;3.35;1.48;;;;;;;18.19;49.92;93481.81;5089358;28;20028;-57
2021/05/30 07:30:33;;;;;;;3.70;1.77;;;;;;;18.44;49.91;93493.28;5109445;28;20069;-59
2021/05/30 07:32:58;;;;;;;2.13;1.45;;;;;;;18.64;49.53;93494.59;5109484;28;20019;-59
2021/05/30 07:35:24;;;;;;;2.47;1.75;;;;;;;18.68;48.90;93506.03;5109281;28;20034;-58
2021/05/30 07:37:50;;;;;;;1.55;1.00;;;;;;;18.75;48.95;93507.16;5109626;28;20031;-58
2021/05/30 07:40:17;;;;;;;1.25;1.15;;;;;;;18.68;48.13;93511.63;5109221;28;20023;-58
2021/05/30 07:42:42;;;;;;;2.95;1.17;;;;;;;18.73;48.23;93495.84;5109857;28;20420;-57
2021/05/30 07:45:08;;;;;;;1.15;1.05;;;;;;;19.23;47.82;93498.34;5108329;28;20024;-59
2021/05/30 07:47:34;;;;;;;4.60;1.50;;;;;;;19.31;47.16;93507.25;5108848;28;20027;-58
2021/05/30 07:49:59;;;;;;;1.50;1.40;;;;;;;19.24;46.87;93503.31;5109629;28;20458;-58
2021/05/30 07:52:25;;;;;;;1.10;0.90;;;;;;;19.34;46.71;93503.25;5109334;28;20023;-57
2021/05/30 07:54:50;;;;;;;10.93;1.63;;;;;;;19.49;46.08;93488.81;5112187;28;20034;-58
2021/05/30 07:57:16;;;;;;;2.88;1.38;;;;;;;19.38;46.78;93487.44;5113140;28;20500;-57
2021/05/30 07:59:41;;;;;;;1.75;1.48;;;;;;;19.89;44.18;93502.47;5113594;28;20034;-59
2021/05/30 08:02:07;;;;;;;1.48;0.90;;;;;;;20.49;44.08;93502.53;5113283;28;20015;-57
2021/05/30 08:04:33;;;;;;;1.30;1.20;;;;;;;21.24;42.59;93496.34;5113113;28;20036;-58
2021/05/30 08:06:59;;;;;;;4.00;1.08;;;;;;;22.04;40.85;93491.56;5112952;28;20051;-58
2021/05/30 08:09:25;;;;;;;1.70;1.33;;;;;;;22.71;38.19;93484.44;5112878;28;20102;-59
2021/05/30 08:11:51;;;;;;;1.60;1.42;;;;;;;23.37;37.09;93477.81;5113062;28;20123;-57
2021/05/30 08:14:16;;;;;;;1.42;0.90;;;;;;;23.42;35.70;93473.78;5112983;28;20072;-58
2021/05/30 08:16:43;;;;;;;1.23;1.13;;;;;;;24.42;36.30;93472.75;5113435;28;20106;-59
2021/05/30 08:19:09;;;;;;;2.70;0.68;;;;;;;24.79;34.80;93469.38;5111578;28;20055;-59
2021/05/30 08:21:34;;;;;;;9.63;1.02;;;;;;;24.91;34.19;93469.88;5092373;28;20078;-59
2021/05/30 08:24:00;;;;;;;1.15;1.05;;;;;;;25.36;34.17;93467.47;5092724;28;20112;-59
2021/05/30 08:26:25;;;;;;;1.30;1.10;;;;;;;26.12;32.06;93469.72;5096655;28;20027;-59
2021/05/30 08:28:51;;;;;;;0.73;0.63;;;;;;;26.91;31.23;93467.59;5106243;28;20546;-59
2021/05/30 08:31:16;;;;;;;0.70;0.70;;;;;;;27.34;28.69;93471.81;5106862;28;20114;-59
2021/05/30 08:33:42;;;;;;;1.08;0.80;;;;;;;27.59;28.09;93454.91;5102553;28;20081;-59
2021/05/30 08:36:07;;;;;;;0.45;0.45;;;;;;;28.37;28.42;93470.03;5105906;28;20076;-59
2021/05/30 08:38:33;;;;;;;0.50;0.50;;;;;;;29.16;26.55;93453.72;5107344;28;20032;-59
2021/05/30 08:40:59;;;;;;;1.30;0.80;;;;;;;29.67;25.86;93452.81;5109598;28;20027;-59
2021/05/30 08:43:25;;;;;;;0.85;0.70;;;;;;;28.83;24.13;93448.56;5102495;28;20052;-59
2021/05/30 08:45:51;;;;;;;0.57;0.57;;;;;;;28.40;25.51;93438.19;5107728;28;20027;-59
2021/05/30 08:48:17;;;;;;;0.47;0.43;;;;;;;28.99;26.01;93448.28;5091865;28;20465;-60
2021/05/30 08:50:42;;;;;;;0.70;0.70;;;;;;;29.23;24.93;93441.13;5092095;28;20032;-59
2021/05/30 08:53:08;;;;;;;0.57;0.50;;;;;;;29.87;23.32;93444.03;5100453;28;20024;-59
2021/05/30 08:55:33;;;;;;;0.80;0.52;;;;;;;29.46;23.94;93439.50;5091037;28;20051;-59
2021/05/30 08:57:59;;;;;;;5.72;0.80;;;;;;;29.54;25.24;93436.16;5089990;28;20023;-62
2021/05/30 09:00:28;;;;;;;0.63;0.63;;;;;;;29.51;23.81;93435.38;5090439;28;20030;-57
2021/05/30 09:03:13;;;;;;;1.25;1.05;;;;;;;30.04;21.98;93442.28;5090292;28;20027;-50
2021/05/30 09:05:39;;;;;;;0.52;0.50;;;;;;;30.06;22.41;93440.16;5090472;28;20035;-56
2021/05/30 09:08:05;;;;;;;0.90;0.82;;;;;;;29.70;23.40;93439.34;5100382;28;20123;-59
2021/05/30 09:10:31;;;;;;;0.68;0.68;;;;;;;30.10;23.83;93443.13;5111283;27;20031;-59
2021/05/30 09:13:17;;;;;;;0.52;0.52;;;;;;;30.45;22.80;93442.44;5112158;28;20023;-59
2021/05/30 09:18:17;;;;;;;1.58;1.10;;;;;;;30.52;22.57;93446.13;5112705;28;20023;-60
2021/05/30 09:20:51;;;;;;;2.67;0.50;;;;;;;30.76;21.12;93448.72;5112493;28;20522;-58
2021/05/30 09:23:37;;;;;;;0.77;0.50;;;;;;;30.64;21.57;93447.09;5103095;28;20070;-59
2021/05/30 09:26:22;;;;;;;0.50;0.32;;;;;;;30.83;22.14;93453.84;5092124;28;20509;-60
2021/05/30 09:29:06;;;;;;;3.45;0.88;;;;;;;31.28;22.65;93447.53;5092382;28;20043;-60
2021/05/30 09:31:33;;;;;;;0.93;0.68;;;;;;;31.49;22.54;93434.34;5092173;28;20020;-60
2021/05/30 09:33:59;;;;;;;0.50;0.50;;;;;;;31.78;19.69;93438.34;5092296;28;20023;-62
2021/05/30 09:36:24;;;;;;;1.30;0.80;;;;;;;32.22;22.66;93436.16;5091837;28;20516;-60
2021/05/30 09:39:02;;;;;;;0.60;0.50;;;;;;;32.07;18.85;93437.38;5091886;28;20020;-59
2021/05/30 09:41:27;;;;;;;0.60;0.60;;;;;;;32.32;19.35;93441.25;5092788;28;20485;-60
2021/05/30 09:43:54;;;;;;;0.65;0.65;;;;;;;32.67;20.39;93441.00;5097153;28;20034;-60
2021/05/30 09:46:21;;;;;;;0.50;0.50;;;;;;;31.98;21.54;93427.97;5100511;28;20026;-60
2021/05/30 09:48:49;;;;;;;0.40;0.40;;;;;;;31.66;21.49;93424.66;5102320;28;20024;-60
2021/05/30 09:51:33;;;;;;;0.70;0.70;;;;;;;31.38;21.35;93419.16;5101767;28;20020;-60
2021/05/30 09:54:06;;;;;;;2.10;0.88;;;;;;;31.38;21.47;93430.59;5102435;28;20040;-59
2021/05/30 09:56:33;;;;;;;1.38;0.60;;;;;;;31.26;21.65;93416.13;5092074;28;20115;-59
2021/05/30 09:58:59;;;;;;;1.20;0.93;;;;;;;31.24;21.42;93421.81;5091234;28;20056;-59
2021/05/30 10:01:26;;;;;;;0.40;0.35;;;;;;;31.15;21.70;93423.06;5090864;28;20109;-60
2021/05/30 10:03:56;;;;;;;0.52;0.52;;;;;;;31.04;23.01;93418.59;5091748;28;20587;-58
2021/05/30 10:06:22;;;;;;;1.15;0.80;;;;;;;30.92;21.93;93400.56;5091303;28;20028;-60
2021/05/30 10:08:48;;;;;;;0.57;0.52;;;;;;;30.90;21.37;93414.78;5107157;28;20034;-59
2021/05/30 10:11:16;;;;;;;0.95;0.50;;;;;;;30.87;21.43;93414.03;5110532;28;20024;-59
2021/05/30 10:13:42;;;;;;;0.55;0.45;;;;;;;30.70;22.30;93409.41;5110689;28;20156;-59
2021/05/30 10:16:08;;;;;;;0.80;0.57;;;;;;;30.40;22.91;93406.00;5111359;27;20510;-60
2021/05/30 10:18:46;;;;;;;0.57;0.55;;;;;;;30.23;23.12;93404.22;5110280;28;20481;-60
2021/05/30 10:21:15;;;;;;;1.40;0.97;;;;;;;29.51;22.00;93404.06;5091486;28;20129;-59
2021/05/30 10:23:41;;;;;;;0.88;0.50;;;;;;;29.57;23.71;93412.75;5091041;28;20464;-59
2021/05/30 10:26:23;;;;;;;4.85;0.90;;;;;;;29.09;24.47;93414.41;5090053;28;20024;-58
2021/05/30 10:29:19;;;;;;;1.17;1.00;;;;;;;29.42;24.73;93402.44;5096777;28;20023;-60
2021/05/30 10:31:46;;;;;;;3.65;0.63;;;;;;;29.41;25.17;93408.81;5105597;28;20114;-58
2021/05/30 10:34:13;;;;;;;0.57;0.55;;;;;;;29.39;25.48;93414.47;5111132;28;20028;-59
2021/05/30 10:36:57;;;;;;;0.28;0.28;;;;;;;28.87;24.63;93408.88;5111155;28;20055;-58
2021/05/30 10:39:43;;;;;;;0.93;0.52;;;;;;;29.06;24.26;93407.25;5111238;28;20047;-52
2021/05/30 10:42:10;;;;;;;0.73;0.70;;;;;;;28.49;25.69;93408.59;5109454;28;20114;-51
2021/05/30 10:44:54;;;;;;;1.00;0.80;;;;;;;28.24;26.31;93400.81;5110889;28;20037;-50
2021/05/30 10:47:21;;;;;;;4.35;0.95;;;;;;;28.50;23.95;93397.97;5110622;28;20031;-48
2021/05/30 10:50:07;;;;;;;3.78;0.60;;;;;;;28.96;25.31;93395.59;5111053;28;20472;-48
2021/05/30 10:52:34;;;;;;;1.65;0.95;;;;;;;28.83;24.79;93388.16;5110630;28;20031;-50
2021/05/30 10:55:08;;;;;;;0.43;0.35;;;;;;;28.37;25.20;93387.69;5110846;28;20024;-50
2021/05/30 10:57:50;;;;;;;0.82;0.55;;;;;;;27.56;27.60;93388.19;5110881;28;20028;-46
2021/05/30 11:00:21;;;;;;;0.40;0.40;;;;;;;26.61;27.41;93392.16;5109677;28;20027;-47
2021/05/30 11:03:05;;;;;;;1.35;0.82;;;;;;;25.83;29.99;93387.28;5109305;28;20020;-47
2021/05/30 11:05:50;;;;;;;1.75;1.10;;;;;;;26.02;30.28;93387.28;5098580;28;20039;-48
2021/05/30 11:08:51;;;;;;;1.48;0.75;;;;;;;26.09;28.74;93388.25;5102186;28;20030;-48
2021/05/30 11:11:22;;;;;;;1.38;0.93;;;;;;;25.94;30.21;93389.09;5093213;28;20079;-47
2021/05/30 11:13:51;;;;;;;0.98;0.80;;;;;;;25.89;29.68;93388.22;5096252;28;20019;-49
2021/05/30 11:16:21;;;;;;;0.90;0.80;;;;;;;26.15;29.72;93388.47;5103363;28;20092;-47
2021/05/30 11:18:59;;;;;;;0.60;0.60;;;;;;;26.39;27.88;93383.66;5109440;28;20088;-49
2021/05/30 11:21:31;;;;;;;1.63;1.05;;;;;;;26.82;28.47;93386.53;5089671;28;20402;-49
2021/05/30 11:23:58;;;;;;;3.40;0.73;;;;;;;26.87;28.29;93382.47;5090493;28;20465;-50
2021/05/30 11:26:24;;;;;;;1.15;0.63;;;;;;;26.91;28.38;93387.53;5090381;28;20055;-51
2021/05/30 11:28:50;;;;;;;0.57;0.55;;;;;;;27.08;27.40;93381.00;5094925;28;20024;-49
2021/05/30 11:31:15;;;;;;;2.85;0.70;;;;;;;26.85;29.50;93382.41;5114674;28;20102;-48
2021/05/30 11:33:43;;;;;;;2.40;0.85;;;;;;;26.54;29.83;93388.41;5114945;28;20039;-48
2021/05/30 11:36:18;;;;;;;0.45;0.40;;;;;;;25.84;31.60;93388.72;5114684;28;20024;-49
2021/05/30 11:38:47;;;;;;;0.70;0.70;;;;;;;25.52;31.79;93383.31;5114550;28;20032;-50